Terminal Aerodrome Forecast
Issued by NWS

Current Version | Previous Version | Text Only | Print | Product List | Glossary On
Versions: 1 2 3 4 5 6 7 8 9 10 11 12 13 14
000
FTUS42 KTBW 231738
TAFPIE
TAF
KPIE 231738Z 2318/2418 05007KT P6SM SCT035 SCT250
     FM232000 31009KT P6SM VCTS FEW025CB BKN100
     FM240300 29005KT P6SM FEW050 SCT250
     FM241000 25004KT P6SM VCSH BKN020 BKN100
     FM241300 27008KT P6SM SCT030 BKN110
     FM241600 28012KT P6SM FEW035 SCT250=

USA.gov is the U.S. government's official web portal to all federal, state and local government web resources and services.